createdAt,value
2018-09-21T00:01:22.773Z,6.93
2018-09-21T00:03:56.164Z,7.17
2018-09-21T00:06:23.820Z,8.83
2018-09-21T00:08:52.149Z,12.70
2018-09-21T00:11:20.059Z,6.00
2018-09-21T00:13:48.129Z,8.30
2018-09-21T00:16:15.809Z,5.60
2018-09-21T00:18:43.440Z,5.70
2018-09-21T00:21:11.078Z,6.37
2018-09-21T00:23:39.064Z,6.17
2018-09-21T00:26:06.765Z,6.37
2018-09-21T00:28:34.375Z,5.60
2018-09-21T00:31:02.054Z,6.80
2018-09-21T00:33:36.268Z,6.30
2018-09-21T00:36:03.982Z,5.47
2018-09-21T00:38:31.560Z,5.90
2018-09-21T00:40:59.343Z,5.50
2018-09-21T00:43:27.093Z,6.60
2018-09-21T00:45:54.732Z,6.60
2018-09-21T00:48:23.193Z,5.50
2018-09-21T00:50:50.755Z,6.70
2018-09-21T00:53:18.817Z,7.20
2018-09-21T00:55:46.382Z,6.93
2018-09-21T00:58:14.099Z,7.00
2018-09-21T01:00:42.424Z,8.03
2018-09-21T01:03:09.992Z,8.23
2018-09-21T01:05:37.638Z,8.33
2018-09-21T01:08:05.269Z,9.10
2018-09-21T01:10:32.920Z,7.93
2018-09-21T01:13:00.602Z,8.33
2018-09-21T01:15:28.750Z,9.37
2018-09-21T01:17:56.345Z,9.00
2018-09-21T01:20:23.910Z,8.73
2018-09-21T01:22:51.577Z,7.80
2018-09-21T01:25:19.779Z,10.43
2018-09-21T01:27:47.390Z,8.50
2018-09-21T01:30:15.188Z,8.90
2018-09-21T01:32:42.861Z,7.30
2018-09-21T01:35:10.440Z,9.00
2018-09-21T01:37:38.162Z,8.90
2018-09-21T01:40:08.740Z,8.43
2018-09-21T01:42:36.737Z,8.60
2018-09-21T01:45:04.410Z,13.53
2018-09-21T01:47:32.037Z,8.50
2018-09-21T01:49:59.740Z,8.90
2018-09-21T01:52:27.348Z,9.13
2018-09-21T01:54:54.935Z,8.80
2018-09-21T01:57:23.155Z,9.53
2018-09-21T01:59:50.783Z,9.80
2018-09-21T02:02:18.409Z,10.30
2018-09-21T02:04:46.066Z,8.73
2018-09-21T02:07:13.673Z,11.20
2018-09-21T02:09:41.313Z,10.20
2018-09-21T02:12:08.952Z,10.53
2018-09-21T02:14:36.655Z,9.73
2018-09-21T02:17:04.328Z,10.60
2018-09-21T02:19:32.458Z,9.83
2018-09-21T02:22:00.095Z,8.73
2018-09-21T02:24:27.756Z,8.00
2018-09-21T02:26:55.572Z,7.83
2018-09-21T02:29:23.147Z,9.90
2018-09-21T02:31:50.762Z,9.53
2018-09-21T02:34:21.217Z,8.27
2018-09-21T02:36:49.056Z,8.83
2018-09-21T02:39:16.715Z,10.87
2018-09-21T02:41:44.450Z,9.03
2018-09-21T02:44:12.784Z,9.40
2018-09-21T02:46:40.556Z,8.93
2018-09-21T02:49:08.152Z,9.20
2018-09-21T02:51:36.170Z,10.10
2018-09-21T02:54:03.871Z,8.30
2018-09-21T02:56:32.565Z,9.03
2018-09-21T02:59:00.232Z,8.10
2018-09-21T03:01:27.835Z,10.03
2018-09-21T03:03:55.440Z,9.47
2018-09-21T03:06:24.452Z,9.50
2018-09-21T03:08:52.053Z,8.60
2018-09-21T03:11:20.280Z,8.23
2018-09-21T03:13:47.881Z,9.00
2018-09-21T03:16:16.042Z,8.87
2018-09-21T03:18:43.719Z,8.90
2018-09-21T03:21:11.343Z,8.43
2018-09-21T03:23:39.395Z,12.43
2018-09-21T03:26:07.046Z,8.77
2018-09-21T03:28:35.071Z,9.03
2018-09-21T03:31:03.478Z,8.33
2018-09-21T03:33:31.102Z,8.57
2018-09-21T03:35:58.701Z,8.00
2018-09-21T03:38:26.530Z,8.33
2018-09-21T03:40:54.129Z,8.37
2018-09-21T03:43:21.838Z,9.03
2018-09-21T03:45:49.415Z,9.33
2018-09-21T03:48:17.036Z,9.97
2018-09-21T03:50:44.640Z,14.33
2018-09-21T03:53:12.971Z,9.30
2018-09-21T03:55:41.133Z,8.63
2018-09-21T03:58:08.710Z,9.13
2018-09-21T04:00:36.601Z,9.40
2018-09-21T04:03:04.291Z,9.03
2018-09-21T04:05:32.046Z,10.83
2018-09-21T04:07:59.634Z,8.33
2018-09-21T04:10:27.276Z,10.10
2018-09-21T04:12:54.886Z,7.90
2018-09-21T04:15:22.564Z,8.90
2018-09-21T04:17:50.946Z,9.00
2018-09-21T04:20:18.584Z,8.30
2018-09-21T04:22:50.690Z,9.50
2018-09-21T04:25:18.343Z,8.23
2018-09-21T04:27:45.983Z,9.20
2018-09-21T04:30:13.716Z,8.90
2018-09-21T04:32:41.286Z,8.83
2018-09-21T04:35:08.956Z,8.93
2018-09-21T04:37:36.588Z,11.80
2018-09-21T04:40:04.301Z,9.70
2018-09-21T04:42:32.011Z,9.50
2018-09-21T04:44:59.826Z,9.40
2018-09-21T04:47:27.630Z,9.73
2018-09-21T04:49:55.264Z,8.83
2018-09-21T04:52:22.943Z,9.20
2018-09-21T04:54:50.473Z,8.43
2018-09-21T04:57:18.148Z,8.03
2018-09-21T04:59:46.383Z,8.20
2018-09-21T05:02:14.578Z,9.23
2018-09-21T05:04:42.947Z,7.80
2018-09-21T05:07:10.679Z,8.70
2018-09-21T05:09:38.366Z,8.30
2018-09-21T05:12:06.271Z,6.13
2018-09-21T05:14:34.114Z,7.50
2018-09-21T05:17:02.455Z,9.83
2018-09-21T05:19:30.656Z,7.00
2018-09-21T05:21:58.394Z,8.57
2018-09-21T05:24:27.621Z,8.00
2018-09-21T05:26:55.350Z,8.47
2018-09-21T05:29:23.275Z,8.10
2018-09-21T05:31:51.236Z,8.23
2018-09-21T05:34:19.108Z,9.23
2018-09-21T05:36:46.844Z,8.13
2018-09-21T05:39:14.731Z,6.80
2018-09-21T05:41:42.929Z,8.43
2018-09-21T05:44:11.281Z,8.70
2018-09-21T05:46:39.802Z,9.50
2018-09-21T05:49:07.843Z,7.43
2018-09-21T05:51:36.061Z,9.20
2018-09-21T05:54:03.960Z,7.83
2018-09-21T05:56:32.150Z,9.53
2018-09-21T05:59:00.345Z,7.67
2018-09-21T06:01:28.302Z,8.63
2018-09-21T06:03:56.544Z,8.97
2018-09-21T06:06:24.216Z,8.33
2018-09-21T06:08:52.516Z,11.83
2018-09-21T06:11:20.353Z,7.93
2018-09-21T06:13:48.162Z,8.40
2018-09-21T06:16:15.863Z,8.13
2018-09-21T06:18:43.675Z,9.13
2018-09-21T06:21:11.440Z,8.53
2018-09-21T06:23:39.890Z,11.17
2018-09-21T06:26:07.548Z,8.20
2018-09-21T06:28:35.435Z,13.07
2018-09-21T06:31:03.217Z,9.23
2018-09-21T06:33:30.839Z,11.47
2018-09-21T06:35:58.693Z,9.60
2018-09-21T06:38:26.264Z,11.53
2018-09-21T06:40:54.641Z,9.60
2018-09-21T06:43:23.044Z,10.37
2018-09-21T06:45:50.775Z,11.60
2018-09-21T06:48:18.384Z,12.97
2018-09-21T06:50:45.981Z,10.83
2018-09-21T06:53:13.602Z,9.20
2018-09-21T06:55:41.331Z,8.83
2018-09-21T06:58:09.084Z,11.40
2018-09-21T07:00:36.729Z,10.70
2018-09-21T07:03:05.170Z,12.00
2018-09-21T07:05:32.943Z,9.13
2018-09-21T07:08:00.589Z,10.90
2018-09-21T07:10:28.281Z,12.10
2018-09-21T07:12:56.700Z,9.20
2018-09-21T07:15:24.729Z,9.60
2018-09-21T07:17:52.301Z,11.33
2018-09-21T07:20:19.908Z,9.57
2018-09-21T07:22:47.619Z,10.37
2018-09-21T07:25:15.234Z,17.13
2018-09-21T07:27:42.957Z,9.20
2018-09-21T07:30:10.553Z,9.83
2018-09-21T07:32:38.183Z,11.07
2018-09-21T07:35:06.480Z,9.17
2018-09-21T07:37:34.233Z,9.13
2018-09-21T07:40:02.340Z,9.27
2018-09-21T07:42:30.023Z,8.47
2018-09-21T07:44:57.748Z,9.73
2018-09-21T07:47:25.465Z,8.70
2018-09-21T07:49:53.160Z,9.63
2018-09-21T07:52:20.887Z,8.70
2018-09-21T07:54:48.477Z,11.40
2018-09-21T07:57:16.130Z,9.67
2018-09-21T07:59:43.805Z,9.67
2018-09-21T08:02:12.216Z,9.27
2018-09-21T08:04:39.950Z,10.77
2018-09-21T08:07:08.673Z,12.63
2018-09-21T08:09:36.329Z,14.87
2018-09-21T08:12:04.038Z,8.67
2018-09-21T08:14:31.725Z,11.87
2018-09-21T08:16:59.507Z,14.90
2018-09-21T08:19:27.171Z,10.37
2018-09-21T08:21:56.095Z,9.33
2018-09-21T08:24:24.039Z,13.00
2018-09-21T08:26:51.735Z,13.43
2018-09-21T08:29:19.424Z,10.33
2018-09-21T08:31:47.026Z,9.87
2018-09-21T08:34:14.687Z,14.30
2018-09-21T08:36:42.652Z,9.60
2018-09-21T08:39:11.071Z,12.33
2018-09-21T08:41:39.537Z,11.00
2018-09-21T08:44:07.436Z,9.37
2018-09-21T08:46:35.732Z,10.80
2018-09-21T08:49:03.437Z,11.13
2018-09-21T08:51:31.106Z,9.73
2018-09-21T08:53:58.763Z,9.37
2018-09-21T08:56:26.532Z,10.43
2018-09-21T08:58:54.305Z,9.73
2018-09-21T09:01:22.613Z,15.00
2018-09-21T09:03:50.880Z,12.33
2018-09-21T09:06:18.665Z,8.80
2018-09-21T09:08:46.357Z,8.70
2018-09-21T09:11:14.066Z,10.20
2018-09-21T09:13:42.372Z,9.50
2018-09-21T09:16:10.491Z,9.67
2018-09-21T09:18:38.940Z,12.37
2018-09-21T09:21:06.673Z,11.70
2018-09-21T09:23:34.350Z,9.20
2018-09-21T09:26:02.032Z,9.03
2018-09-21T09:28:30.091Z,9.20
2018-09-21T09:30:57.864Z,9.10
2018-09-21T09:33:25.599Z,9.00
2018-09-21T09:35:53.602Z,8.90
2018-09-21T09:38:21.798Z,8.73
2018-09-21T09:40:50.342Z,8.60
2018-09-21T09:43:17.948Z,8.53
2018-09-21T09:45:45.552Z,9.40
2018-09-21T09:48:13.249Z,9.80
2018-09-21T09:50:40.862Z,9.03
2018-09-21T09:53:08.566Z,10.13
2018-09-21T09:55:36.167Z,8.30
2018-09-21T09:58:04.008Z,9.57
2018-09-21T10:00:40.133Z,9.47
2018-09-21T10:03:08.507Z,16.50
2018-09-21T10:05:41.099Z,14.17
2018-09-21T10:08:09.158Z,9.63
2018-09-21T10:10:37.612Z,7.30
2018-09-21T10:13:05.359Z,12.60
2018-09-21T10:15:33.090Z,7.33
2018-09-21T10:18:00.901Z,7.00
2018-09-21T10:20:28.621Z,7.23
2018-09-21T10:22:56.292Z,8.57
2018-09-21T10:25:24.053Z,8.73
2018-09-21T10:27:51.878Z,7.37
2018-09-21T10:30:19.431Z,8.80
2018-09-21T10:32:47.770Z,8.67
2018-09-21T10:35:16.800Z,16.77
2018-09-21T10:37:44.573Z,12.00
2018-09-21T10:40:12.307Z,6.27
2018-09-21T10:42:39.951Z,7.57
2018-09-21T10:45:07.977Z,7.53
2018-09-21T10:47:35.803Z,6.93
2018-09-21T10:50:03.768Z,5.50
2018-09-21T10:52:31.402Z,5.57
2018-09-21T10:54:59.181Z,17.10
2018-09-21T10:57:27.611Z,20.73
2018-09-21T10:59:55.670Z,8.43
2018-09-21T11:02:23.274Z,4.80
2018-09-21T11:04:51.691Z,5.53
2018-09-21T11:07:19.829Z,3.90
2018-09-21T11:09:47.463Z,3.47
2018-09-21T11:12:15.407Z,4.30
2018-09-21T11:14:43.273Z,6.00
2018-09-21T11:17:11.192Z,4.90
2018-09-21T11:19:38.901Z,4.77
2018-09-21T11:22:06.728Z,5.47
2018-09-21T11:24:34.573Z,4.47
2018-09-21T11:27:02.225Z,4.33
2018-09-21T11:29:29.900Z,4.13
2018-09-21T11:31:57.617Z,4.43
2018-09-21T11:34:25.575Z,5.23
2018-09-21T11:36:53.200Z,4.93
2018-09-21T11:39:22.509Z,3.40
2018-09-21T11:41:50.257Z,7.13
2018-09-21T11:44:18.304Z,3.93
2018-09-21T11:46:46.591Z,5.40
2018-09-21T11:49:14.764Z,2.70
2018-09-21T11:51:42.349Z,3.53
2018-09-21T11:54:09.990Z,3.83
2018-09-21T11:56:37.601Z,6.17
2018-09-21T11:59:05.313Z,3.67
2018-09-21T12:01:33.827Z,4.43
2018-09-21T12:04:01.978Z,3.70
2018-09-21T12:06:30.153Z,4.87
2018-09-21T12:08:58.571Z,3.73
2018-09-21T12:11:26.206Z,3.37
2018-09-21T12:13:54.212Z,3.30
2018-09-21T12:16:22.239Z,7.80
2018-09-21T12:18:49.889Z,4.73
2018-09-21T12:21:17.795Z,4.77
2018-09-21T12:23:46.302Z,4.67
2018-09-21T12:26:14.100Z,9.47
2018-09-21T12:28:41.984Z,4.77
2018-09-21T12:31:09.731Z,5.07
2018-09-21T12:33:37.509Z,6.37
2018-09-21T12:36:06.889Z,6.50
2018-09-21T12:38:34.542Z,3.83
2018-09-21T12:41:02.297Z,5.53
2018-09-21T12:43:30.519Z,5.50
2018-09-21T12:45:58.254Z,3.77
2018-09-21T12:48:25.966Z,4.03
2018-09-21T12:50:53.722Z,4.23
2018-09-21T12:53:21.500Z,5.80
2018-09-21T12:55:49.357Z,5.30
2018-09-21T12:58:17.131Z,3.47
2018-09-21T13:00:51.986Z,3.60
2018-09-21T13:03:21.022Z,5.00
2018-09-21T13:05:53.563Z,3.53
2018-09-21T13:08:22.041Z,3.00
2018-09-21T13:10:50.079Z,2.37
2018-09-21T13:13:18.360Z,3.87
2018-09-21T13:15:46.509Z,3.43
2018-09-21T13:18:14.381Z,2.73
2018-09-21T13:20:42.671Z,4.67
2018-09-21T13:23:10.537Z,2.70
2018-09-21T13:25:38.411Z,3.57
2018-09-21T13:28:06.468Z,3.30
2018-09-21T13:30:34.224Z,5.53
2018-09-21T13:33:02.345Z,3.10
2018-09-21T13:35:30.083Z,2.83
2018-09-21T13:37:59.010Z,2.83
2018-09-21T13:40:27.514Z,2.60
2018-09-21T13:42:55.665Z,2.63
2018-09-21T13:45:23.729Z,3.60
2018-09-21T13:47:52.271Z,3.10
2018-09-21T13:50:20.292Z,4.17
2018-09-21T13:52:48.425Z,3.93
2018-09-21T13:55:16.998Z,3.97
2018-09-21T13:57:44.807Z,3.00
2018-09-21T14:00:12.915Z,3.30
2018-09-21T14:02:41.735Z,2.90
2018-09-21T14:05:10.078Z,2.73
2018-09-21T14:07:38.386Z,2.50
2018-09-21T14:10:11.806Z,6.73
2018-09-21T14:12:40.030Z,4.40
2018-09-21T14:15:09.206Z,7.63
2018-09-21T14:17:37.832Z,6.73
2018-09-21T14:20:06.921Z,5.40
2018-09-21T14:22:34.972Z,6.00
2018-09-21T14:25:02.897Z,5.20
2018-09-21T14:27:31.219Z,6.33
2018-09-21T14:29:59.278Z,2.03
2018-09-21T14:32:27.214Z,1.90
2018-09-21T14:34:56.248Z,1.73
2018-09-21T14:37:24.240Z,1.27
2018-09-21T14:39:52.343Z,1.27
2018-09-21T14:42:20.233Z,1.00
2018-09-21T14:44:48.286Z,1.77
2018-09-21T14:47:16.110Z,1.77
2018-09-21T14:49:43.820Z,2.55
2018-09-21T14:52:11.627Z,2.72
2018-09-21T14:54:39.454Z,1.42
2018-09-21T14:57:07.466Z,1.70
2018-09-21T14:59:35.368Z,1.50
2018-09-21T15:02:03.187Z,1.95
2018-09-21T15:04:31.240Z,0.80
2018-09-21T15:06:59.483Z,1.27
2018-09-21T15:09:27.424Z,1.35
2018-09-21T15:11:55.857Z,0.70
2018-09-21T15:14:23.735Z,3.37
2018-09-21T15:16:51.493Z,2.95
2018-09-21T15:19:20.530Z,1.77
2018-09-21T15:21:48.564Z,1.70
2018-09-21T15:24:16.494Z,1.72
2018-09-21T15:26:44.099Z,1.17
2018-09-21T15:29:11.728Z,2.10
2018-09-21T15:31:39.756Z,0.88
2018-09-21T15:34:07.637Z,3.80
2018-09-21T15:36:35.287Z,1.82
2018-09-21T15:39:04.681Z,1.90
2018-09-21T15:41:32.512Z,2.30
2018-09-21T15:44:00.198Z,2.58
2018-09-21T15:46:27.889Z,1.90
2018-09-21T15:48:56.041Z,3.33
2018-09-21T15:51:24.525Z,3.58
2018-09-21T15:53:52.136Z,1.55
2018-09-21T15:56:20.228Z,2.47
2018-09-21T15:58:48.479Z,3.92
2018-09-21T16:01:16.234Z,2.47
2018-09-21T16:03:45.244Z,1.20
2018-09-21T16:06:12.965Z,3.83
2018-09-21T16:08:40.954Z,2.30
2018-09-21T16:11:09.311Z,3.75
2018-09-21T16:13:37.000Z,3.52
2018-09-21T16:16:04.911Z,3.55
2018-09-21T16:18:33.423Z,1.92
2018-09-21T16:21:02.006Z,2.47
2018-09-21T16:23:29.987Z,7.33
2018-09-21T16:25:58.490Z,1.47
2018-09-21T16:28:26.294Z,1.90
2018-09-21T16:30:54.302Z,4.37
2018-09-21T16:33:21.978Z,4.17
2018-09-21T16:35:49.946Z,2.80
2018-09-21T16:38:17.871Z,2.12
2018-09-21T16:40:45.671Z,3.67
2018-09-21T16:43:13.666Z,3.08
2018-09-21T16:45:41.459Z,10.90
2018-09-21T16:48:09.341Z,3.83
2018-09-21T16:50:38.120Z,7.22
2018-09-21T16:53:07.124Z,4.22
2018-09-21T16:55:35.044Z,9.50
2018-09-21T16:58:03.125Z,5.20
2018-09-21T17:00:31.239Z,3.80
2018-09-21T17:03:00.957Z,4.05
2018-09-21T17:05:28.790Z,4.33
2018-09-21T17:07:56.766Z,7.60
2018-09-21T17:10:24.614Z,4.45
2018-09-21T17:12:52.984Z,4.50
2018-09-21T17:15:20.921Z,8.08
2018-09-21T17:17:48.778Z,4.40
2018-09-21T17:20:16.687Z,2.83
2018-09-21T17:22:44.489Z,4.35
2018-09-21T17:25:12.522Z,6.87
2018-09-21T17:27:40.237Z,4.85
2018-09-21T17:30:08.309Z,5.85
2018-09-21T17:32:36.006Z,3.12
2018-09-21T17:35:03.902Z,3.35
2018-09-21T17:37:31.944Z,3.60
2018-09-21T17:39:59.766Z,4.58
2018-09-21T17:42:27.757Z,6.85
2018-09-21T17:44:56.512Z,11.93
2018-09-21T17:47:24.281Z,7.67
2018-09-21T17:49:52.717Z,5.12
2018-09-21T17:52:20.527Z,5.75
2018-09-21T17:54:48.576Z,7.75
2018-09-21T17:57:17.138Z,5.60
2018-09-21T17:59:45.222Z,5.58
2018-09-21T18:02:13.013Z,8.73
2018-09-21T18:04:41.440Z,5.28
2018-09-21T18:07:13.803Z,7.35
2018-09-21T18:09:42.523Z,10.30
2018-09-21T18:12:10.716Z,6.12
2018-09-21T18:14:38.722Z,6.35
2018-09-21T18:17:06.752Z,7.40
2018-09-21T18:19:34.912Z,6.65
2018-09-21T18:22:02.913Z,5.90
2018-09-21T18:24:31.235Z,6.35
2018-09-21T18:26:59.056Z,5.62
2018-09-21T18:29:27.742Z,6.70
2018-09-21T18:31:55.656Z,5.83
2018-09-21T18:34:23.885Z,6.37
2018-09-21T18:36:51.830Z,7.85
2018-09-21T18:39:20.796Z,5.95
2018-09-21T18:44:43.421Z,5.70
2018-09-21T18:47:11.129Z,8.60
2018-09-21T18:49:39.253Z,6.20
2018-09-21T18:52:07.212Z,7.47
2018-09-21T18:54:35.694Z,8.63
2018-09-21T18:57:03.640Z,4.78
2018-09-21T18:59:31.424Z,8.83
2018-09-21T19:01:59.302Z,6.33
2018-09-21T19:04:27.080Z,6.10
2018-09-21T19:06:55.127Z,4.95
2018-09-21T19:09:23.082Z,5.45
2018-09-21T19:17:47.544Z,6.95
2018-09-21T19:20:15.310Z,3.42
2018-09-21T19:22:43.836Z,9.13
2018-09-21T19:25:12.217Z,6.62
2018-09-21T19:27:40.901Z,5.60
2018-09-21T19:30:09.099Z,6.90
2018-09-21T19:32:37.231Z,4.42
2018-09-21T19:35:05.630Z,4.45
2018-09-21T20:15:03.820Z,6.37
2018-09-21T20:17:31.677Z,4.80
2018-09-21T20:19:59.626Z,2.55
2018-09-21T20:22:28.195Z,7.65
2018-09-21T20:24:55.992Z,5.62
2018-09-21T20:27:24.081Z,3.42
2018-09-21T20:29:56.461Z,3.70
2018-09-21T20:32:29.951Z,6.62
2018-09-21T20:34:57.887Z,6.28
2018-09-21T20:37:26.182Z,3.85
2018-09-21T20:39:53.933Z,7.12
2018-09-21T20:42:21.709Z,4.25
2018-09-21T20:44:49.855Z,3.80
2018-09-21T20:47:23.865Z,4.37
2018-09-21T20:49:51.858Z,6.78
2018-09-21T20:52:19.572Z,3.55
2018-09-21T20:54:47.288Z,8.80
2018-09-21T20:57:15.064Z,4.42
2018-09-21T20:59:42.754Z,4.47
2018-09-21T21:02:10.383Z,4.87
2018-09-21T21:04:38.431Z,6.17
2018-09-21T21:07:06.901Z,4.97
2018-09-21T21:09:34.715Z,4.83
2018-09-21T21:12:02.808Z,6.95
2018-09-21T21:14:30.727Z,3.47
2018-09-21T21:16:58.544Z,3.92
2018-09-21T21:19:26.374Z,8.83
2018-09-21T21:21:54.613Z,3.00
2018-09-21T21:24:22.536Z,5.42
2018-09-21T21:26:55.156Z,3.70
2018-09-21T21:29:23.493Z,6.28
2018-09-21T21:31:52.944Z,4.95
2018-09-21T21:34:20.655Z,3.02
2018-09-21T21:36:48.378Z,7.15
2018-09-21T21:39:16.997Z,5.15
2018-09-21T21:41:44.913Z,6.22
2018-09-21T21:44:12.609Z,5.00
2018-09-21T21:46:40.744Z,4.53
2018-09-21T21:49:09.243Z,3.10
2018-09-21T21:51:36.885Z,6.87
2018-09-21T21:54:07.725Z,3.52
2018-09-21T21:56:35.647Z,5.58
2018-09-21T21:59:03.346Z,6.05
2018-09-21T22:01:36.724Z,3.33
2018-09-21T22:04:04.848Z,12.93
2018-09-21T22:06:32.898Z,4.50
2018-09-21T22:09:00.704Z,4.58
2018-09-21T22:11:34.063Z,2.45
2018-09-21T22:14:08.004Z,4.20
2018-09-21T22:16:35.935Z,4.60
2018-09-21T22:19:03.602Z,2.62
2018-09-21T22:21:32.527Z,4.37
2018-09-21T22:24:00.582Z,7.08
2018-09-21T22:26:28.527Z,3.05
2018-09-21T22:28:56.284Z,1.80
2018-09-21T22:31:24.170Z,9.15
2018-09-21T22:33:52.523Z,3.30
2018-09-21T22:36:20.252Z,2.67
2018-09-21T22:38:48.500Z,3.65
2018-09-21T22:41:17.156Z,3.45
2018-09-21T22:43:45.097Z,9.68
2018-09-21T22:46:13.228Z,5.05
2018-09-21T22:48:41.508Z,5.87
2018-09-21T22:51:09.203Z,5.75
2018-09-21T22:53:37.161Z,3.67
2018-09-21T22:56:05.152Z,4.28
2018-09-21T22:58:32.764Z,5.95
2018-09-21T23:01:00.991Z,5.55
2018-09-21T23:03:28.633Z,3.27
2018-09-21T23:05:57.043Z,5.65
2018-09-21T23:08:24.797Z,2.58
2018-09-21T23:10:53.234Z,5.72
2018-09-21T23:13:20.890Z,2.90
2018-09-21T23:15:48.849Z,8.50
2018-09-21T23:18:17.140Z,3.92
2018-09-21T23:20:45.452Z,3.72
2018-09-21T23:23:13.745Z,5.53
2018-09-21T23:25:41.915Z,7.53
2018-09-21T23:28:09.922Z,3.62
2018-09-21T23:30:37.619Z,5.20
2018-09-21T23:33:05.233Z,3.00
2018-09-21T23:35:32.872Z,6.12
2018-09-21T23:38:00.609Z,7.33
2018-09-21T23:40:28.285Z,3.92
2018-09-21T23:42:56.627Z,4.65
2018-09-21T23:45:24.558Z,3.85
2018-09-21T23:47:52.170Z,3.15
2018-09-21T23:50:19.847Z,7.20
2018-09-21T23:52:47.483Z,7.97
2018-09-21T23:55:15.121Z,3.52
2018-09-21T23:57:42.715Z,8.08
